createdAt,value
2022-12-20T00:02:26.715Z,98901.91
2022-12-20T00:05:29.222Z,98899.31
2022-12-20T00:08:31.508Z,98894.16
2022-12-20T00:11:33.673Z,98879.50
2022-12-20T00:14:35.748Z,98886.41
2022-12-20T00:17:37.876Z,98879.50
2022-12-20T00:20:40.111Z,98874.34
2022-12-20T00:23:42.657Z,98876.09
2022-12-20T00:26:44.765Z,98883.81
2022-12-20T00:29:46.905Z,98885.53
2022-12-20T00:32:48.931Z,98882.97
2022-12-20T00:35:52.439Z,98865.81
2022-12-20T00:38:56.752Z,98860.66
2022-12-20T00:41:58.818Z,98867.53
2022-12-20T00:45:00.923Z,98878.72
2022-12-20T00:48:02.977Z,98886.41
2022-12-20T00:51:11.517Z,98875.28
2022-12-20T00:54:13.528Z,98885.59
2022-12-20T00:57:15.572Z,98878.72
2022-12-20T01:00:18.013Z,98880.44
2022-12-20T01:03:20.871Z,98885.63
2022-12-20T01:06:25.221Z,98894.22
2022-12-20T01:09:27.250Z,98898.47
2022-12-20T01:12:29.744Z,98902.78
2022-12-20T01:15:31.788Z,98892.50
2022-12-20T01:18:34.015Z,98880.44
2022-12-20T01:21:36.350Z,98885.63
2022-12-20T01:24:38.396Z,98883.03
2022-12-20T01:27:40.495Z,98882.19
2022-12-20T01:30:42.600Z,98868.41
2022-12-20T01:33:46.835Z,98865.81
2022-12-20T01:36:49.889Z,98871.84
2022-12-20T01:39:52.096Z,98873.56
2022-12-20T01:42:54.495Z,98874.44
2022-12-20T01:45:56.683Z,98859.84
2022-12-20T01:49:08.438Z,98852.91
2022-12-20T01:52:33.423Z,98846.09
2022-12-20T01:55:35.969Z,98847.81
2022-12-20T01:58:39.575Z,98846.97
2022-12-20T02:01:44.269Z,98844.34
2022-12-20T02:04:46.822Z,98844.31
2022-12-20T02:07:56.783Z,98866.69
2022-12-20T02:11:16.429Z,98860.66
2022-12-20T02:14:36.122Z,98846.88
2022-12-20T02:17:58.984Z,98852.03
2022-12-20T02:21:17.705Z,98853.69
2022-12-20T02:24:47.937Z,98833.03
2022-12-20T02:28:13.921Z,98840.78
2022-12-20T02:31:21.943Z,98833.03
2022-12-20T02:34:26.637Z,98837.34
2022-12-20T02:37:28.743Z,98835.63
2022-12-20T02:40:43.492Z,98825.28
2022-12-20T02:44:11.735Z,98827.88
2022-12-20T02:47:20.477Z,98825.28
2022-12-20T02:50:36.403Z,98817.56
2022-12-20T02:53:41.296Z,98815.84
2022-12-20T02:57:37.180Z,98816.69
2022-12-20T03:00:43.903Z,98820.97
2022-12-20T03:03:46.002Z,98824.44
2022-12-20T03:07:02.954Z,98830.44
2022-12-20T03:10:05.360Z,98839.06
2022-12-20T03:13:07.516Z,98829.53
2022-12-20T03:16:11.964Z,98820.06
2022-12-20T03:19:14.247Z,98822.66
2022-12-20T03:22:16.332Z,98820.97
2022-12-20T03:25:18.481Z,98817.53
2022-12-20T03:28:21.053Z,98818.38
2022-12-20T03:31:23.295Z,98808.91
2022-12-20T03:34:30.179Z,98807.19
2022-12-20T03:37:32.404Z,98806.28
2022-12-20T03:40:36.719Z,98797.66
2022-12-20T03:43:38.794Z,98801.97
2022-12-20T03:46:41.332Z,98801.13
2022-12-20T03:49:43.364Z,98806.28
2022-12-20T03:52:46.804Z,98806.25
2022-12-20T03:55:48.837Z,98804.53
2022-12-20T03:58:51.288Z,98811.41
2022-12-20T04:01:53.467Z,98809.69
2022-12-20T04:04:55.748Z,98795.09
2022-12-20T04:07:57.959Z,98802.84
2022-12-20T04:11:18.071Z,98815.75
2022-12-20T04:14:46.156Z,98824.34
2022-12-20T04:17:48.809Z,98814.88
2022-12-20T04:20:55.406Z,98810.56
2022-12-20T04:24:04.199Z,98811.41
2022-12-20T04:27:18.369Z,98821.75
2022-12-20T04:30:20.615Z,98818.31
2022-12-20T04:33:24.034Z,98820.00
2022-12-20T04:36:26.436Z,98808.81
2022-12-20T04:39:31.290Z,98819.16
2022-12-20T04:42:50.034Z,98806.25
2022-12-20T04:45:56.430Z,98816.56
2022-12-20T04:49:00.122Z,98806.25
2022-12-20T04:52:22.364Z,98798.50
2022-12-20T04:55:25.127Z,98788.16
2022-12-20T04:58:28.053Z,98800.22
2022-12-20T05:01:30.328Z,98803.63
2022-12-20T05:04:37.385Z,98800.19
2022-12-20T05:07:40.851Z,98801.94
2022-12-20T05:10:43.041Z,98790.75
2022-12-20T05:13:45.193Z,98791.63
2022-12-20T05:16:48.356Z,98791.59
2022-12-20T05:19:50.602Z,98794.19
2022-12-20T05:23:12.029Z,98789.06
2022-12-20T05:26:20.086Z,98773.56
2022-12-20T05:29:24.096Z,98785.63
2022-12-20T05:32:26.571Z,98781.31
2022-12-20T05:35:29.859Z,98788.19
2022-12-20T05:38:39.710Z,98783.91
2022-12-20T05:41:47.825Z,98782.19
2022-12-20T05:44:49.856Z,98777.00
2022-12-20T05:47:52.151Z,98777.00
2022-12-20T05:50:54.510Z,98777.84
2022-12-20T05:54:01.909Z,98786.44
2022-12-20T05:57:16.879Z,98788.13
2022-12-20T06:00:19.142Z,98790.69
2022-12-20T06:03:23.447Z,98787.25
2022-12-20T06:06:26.465Z,98771.75
2022-12-20T06:09:30.558Z,98764.09
2022-12-20T06:12:40.490Z,98783.88
2022-12-20T06:15:42.598Z,98783.03
2022-12-20T06:18:44.678Z,98782.19
2022-12-20T06:21:48.318Z,98784.75
2022-12-20T06:24:52.200Z,98785.59
2022-12-20T06:27:59.195Z,98774.34
2022-12-20T06:31:01.290Z,98781.22
2022-12-20T06:34:14.225Z,98789.84
2022-12-20T06:37:17.453Z,98782.13
2022-12-20T06:40:19.797Z,98783.00
2022-12-20T06:43:21.874Z,98775.28
2022-12-20T06:46:24.054Z,98775.25
2022-12-20T06:49:26.182Z,98772.63
2022-12-20T06:52:28.678Z,98768.28
2022-12-20T06:55:30.723Z,98769.16
2022-12-20T06:58:32.956Z,98768.28
2022-12-20T07:01:35.259Z,98768.28
2022-12-20T07:04:38.086Z,98767.44
2022-12-20T07:07:44.897Z,98775.16
2022-12-20T07:10:47.967Z,98771.72
2022-12-20T07:13:50.587Z,98769.06
2022-12-20T07:16:52.722Z,98776.88
2022-12-20T07:19:54.857Z,98803.56
2022-12-20T07:22:57.048Z,98813.91
2022-12-20T07:26:01.034Z,98805.28
2022-12-20T07:29:03.158Z,98790.59
2022-12-20T07:32:05.569Z,98773.34
2022-12-20T07:35:08.204Z,98757.78
2022-12-20T07:38:10.226Z,98740.59
2022-12-20T07:41:18.519Z,98754.38
2022-12-20T07:44:20.709Z,98775.84
2022-12-20T07:47:23.130Z,98773.25
2022-12-20T07:50:26.154Z,98762.88
2022-12-20T07:53:32.143Z,98756.00
2022-12-20T07:56:41.136Z,98764.53
2022-12-20T07:59:50.483Z,98760.22
2022-12-20T08:03:15.902Z,98765.41
2022-12-20T08:06:18.984Z,98760.22
2022-12-20T08:09:21.036Z,98766.22
2022-12-20T08:12:23.853Z,98765.38
2022-12-20T08:15:28.918Z,98774.75
2022-12-20T08:18:32.000Z,98769.53
2022-12-20T08:21:34.169Z,98761.75
2022-12-20T08:24:36.276Z,98759.13
2022-12-20T08:27:38.431Z,98746.16
2022-12-20T08:30:40.575Z,98739.25
2022-12-20T08:33:42.899Z,98751.28
2022-12-20T08:36:45.802Z,98751.25
2022-12-20T08:39:47.862Z,98738.28
2022-12-20T08:42:49.949Z,98745.97
2022-12-20T08:45:54.673Z,98751.19
2022-12-20T08:48:56.719Z,98746.03
2022-12-20T08:51:58.799Z,98737.41
2022-12-20T08:55:01.990Z,98727.88
2022-12-20T08:58:04.661Z,98739.13
2022-12-20T09:01:09.397Z,98729.66
2022-12-20T09:04:12.280Z,98734.81
2022-12-20T09:07:14.500Z,98720.97
2022-12-20T09:10:16.671Z,98742.63
2022-12-20T09:13:18.872Z,98736.56
2022-12-20T09:16:24.016Z,98748.53
2022-12-20T09:19:26.161Z,98740.78
2022-12-20T09:22:30.162Z,98726.19
2022-12-20T09:25:33.403Z,98724.41
2022-12-20T09:28:35.594Z,98720.97
2022-12-20T09:31:37.934Z,98715.75
2022-12-20T09:34:40.213Z,98711.47
2022-12-20T09:37:42.265Z,98708.00
2022-12-20T09:40:51.212Z,98708.88
2022-12-20T09:43:53.929Z,98717.59
2022-12-20T09:47:10.718Z,98707.25
2022-12-20T09:50:18.053Z,98715.03
2022-12-20T09:53:36.475Z,98708.13
2022-12-20T09:56:47.122Z,98707.13
2022-12-20T09:59:49.991Z,98698.41
2022-12-20T10:03:08.654Z,98700.16
2022-12-20T10:06:22.796Z,98694.31
2022-12-20T10:09:38.293Z,98694.22
2022-12-20T10:13:08.305Z,98703.69
2022-12-20T10:16:13.436Z,98700.28
2022-12-20T10:19:30.441Z,98695.97
2022-12-20T10:22:46.534Z,98682.09
2022-12-20T10:25:50.843Z,98677.69
2022-12-20T10:28:54.673Z,98673.28
2022-12-20T10:32:01.174Z,98676.72
2022-12-20T10:35:26.963Z,98673.25
2022-12-20T10:38:45.575Z,98662.03
2022-12-20T10:41:50.204Z,98659.38
2022-12-20T10:44:53.195Z,98655.97
2022-12-20T10:48:00.327Z,98650.81
2022-12-20T10:51:16.966Z,98647.41
2022-12-20T10:54:46.384Z,98643.06
2022-12-20T10:57:48.439Z,98643.09
2022-12-20T11:00:50.654Z,98637.91
2022-12-20T11:04:07.883Z,98631.88
2022-12-20T11:07:28.763Z,98624.03
2022-12-20T11:10:30.946Z,98618.06
2022-12-20T11:13:33.057Z,98619.72
2022-12-20T11:16:40.597Z,98600.69
2022-12-20T11:20:21.119Z,98585.13
2022-12-20T11:23:42.055Z,98592.81
2022-12-20T11:26:58.017Z,98586.81
2022-12-20T11:30:24.603Z,98590.47
2022-12-20T11:34:02.107Z,98575.81
2022-12-20T11:37:19.720Z,98569.91
2022-12-20T11:40:28.287Z,98580.25
2022-12-20T11:44:22.657Z,98568.06
2022-12-20T11:47:21.979Z,98568.06
2022-12-20T11:50:56.268Z,98568.88
2022-12-20T11:54:08.616Z,98566.47
2022-12-20T11:58:08.802Z,98551.78
2022-12-20T12:01:14.203Z,98550.84
2022-12-20T12:04:30.501Z,98537.97
2022-12-20T12:07:35.723Z,98537.19
2022-12-20T12:10:42.986Z,98528.56
2022-12-20T12:13:45.497Z,98530.25
2022-12-20T12:16:54.254Z,98512.22
2022-12-20T12:20:09.605Z,98507.16
2022-12-20T12:23:23.352Z,98515.75
2022-12-20T12:26:28.778Z,98511.47
2022-12-20T12:29:33.750Z,98511.53
2022-12-20T12:32:49.393Z,98514.16
2022-12-20T12:35:51.422Z,98500.31
2022-12-20T12:39:12.985Z,98494.28
2022-12-20T12:42:52.436Z,98496.09
2022-12-20T12:46:00.291Z,98517.63
2022-12-20T12:49:17.845Z,98518.47
2022-12-20T12:52:35.595Z,98512.47
2022-12-20T12:55:49.522Z,98505.56
2022-12-20T12:59:06.893Z,98499.47
2022-12-20T13:02:15.563Z,98496.88
2022-12-20T13:05:31.187Z,98490.09
2022-12-20T13:09:04.317Z,98503.94
2022-12-20T13:12:37.119Z,98512.56
2022-12-20T13:15:41.989Z,98509.22
2022-12-20T13:19:02.983Z,98512.69
2022-12-20T13:22:22.211Z,98504.91
2022-12-20T13:25:31.666Z,98513.41
2022-12-20T13:28:33.686Z,98511.59
2022-12-20T13:31:36.209Z,98503.78
2022-12-20T13:34:58.386Z,98508.22
2022-12-20T13:38:12.310Z,98510.03
2022-12-20T13:41:26.818Z,98516.00
2022-12-20T13:44:53.309Z,98514.25
2022-12-20T13:48:07.699Z,98512.56
2022-12-20T13:51:23.003Z,98507.38
2022-12-20T13:54:27.384Z,98504.88
2022-12-20T13:57:45.386Z,98498.03
2022-12-20T14:00:49.439Z,98493.75
2022-12-20T14:03:53.667Z,98486.00
2022-12-20T14:07:01.751Z,98480.88
2022-12-20T14:10:17.613Z,98476.66
2022-12-20T14:13:26.049Z,98469.72
2022-12-20T14:16:31.050Z,98474.91
2022-12-20T14:19:33.147Z,98468.03
2022-12-20T14:22:36.886Z,98470.63
2022-12-20T14:25:45.032Z,98465.56
2022-12-20T14:28:50.184Z,98474.19
2022-12-20T14:31:52.358Z,98482.88
2022-12-20T14:34:54.756Z,98479.50
2022-12-20T14:38:00.432Z,98486.31
2022-12-20T14:41:02.595Z,98482.06
2022-12-20T14:44:07.881Z,98478.66
2022-12-20T14:47:21.513Z,98465.66
2022-12-20T14:50:35.384Z,98478.63
2022-12-20T14:53:40.373Z,98476.00
2022-12-20T14:56:47.226Z,98474.34
2022-12-20T15:00:13.990Z,98458.03
2022-12-20T15:03:18.777Z,98457.25
2022-12-20T15:06:42.755Z,98470.19
2022-12-20T15:09:44.869Z,98460.75
2022-12-20T15:12:47.098Z,98464.22
2022-12-20T15:15:49.295Z,98471.97
2022-12-20T15:18:56.695Z,98484.84
2022-12-20T15:21:58.913Z,98486.56
2022-12-20T15:25:00.977Z,98477.00
2022-12-20T15:28:03.105Z,98482.13
2022-12-20T15:31:05.400Z,98471.78
2022-12-20T15:34:15.408Z,98478.72
2022-12-20T15:37:18.920Z,98470.19
2022-12-20T15:40:21.366Z,98471.06
2022-12-20T15:43:25.021Z,98470.97
2022-12-20T15:46:27.910Z,98465.78
2022-12-20T15:49:31.951Z,98464.91
2022-12-20T15:52:34.130Z,98449.44
2022-12-20T15:55:39.911Z,98439.97
2022-12-20T15:58:42.362Z,98434.88
2022-12-20T16:01:44.531Z,98430.50
2022-12-20T16:04:46.664Z,98433.03
2022-12-20T16:07:48.781Z,98425.28
2022-12-20T16:10:52.265Z,98426.97
2022-12-20T16:13:56.288Z,98428.59
2022-12-20T16:16:58.529Z,98424.31
2022-12-20T16:20:00.898Z,98418.34
2022-12-20T16:23:04.340Z,98406.34
2022-12-20T16:26:06.710Z,98396.91
2022-12-20T16:29:08.815Z,98408.97
2022-12-20T16:32:16.836Z,98415.84
2022-12-20T16:35:27.733Z,98412.38
2022-12-20T16:38:29.835Z,98404.63
2022-12-20T16:41:33.247Z,98413.19
2022-12-20T16:44:35.323Z,98408.81
2022-12-20T16:47:37.364Z,98421.78
2022-12-20T16:50:43.588Z,98423.53
2022-12-20T16:54:17.305Z,98439.88
2022-12-20T16:57:09.416Z,98442.47
2022-12-20T17:00:18.233Z,98430.34
2022-12-20T17:03:20.499Z,98436.34
2022-12-20T17:06:22.718Z,98432.91
2022-12-20T17:09:24.762Z,98440.69
2022-12-20T17:12:27.014Z,98426.88
2022-12-20T17:15:32.066Z,98421.72
2022-12-20T17:18:34.173Z,98408.00
2022-12-20T17:25:00.381Z,98406.22
2022-12-20T17:28:02.504Z,98401.91
2022-12-20T17:31:26.191Z,98396.72
2022-12-20T17:34:30.480Z,98401.03
2022-12-20T17:37:32.516Z,98398.44
2022-12-20T17:40:35.907Z,98400.16
2022-12-20T17:43:37.950Z,98395.88
2022-12-20T17:46:40.031Z,98394.16
2022-12-20T17:49:42.103Z,98403.63
2022-12-20T17:52:45.996Z,98408.88
2022-12-20T17:55:48.026Z,98413.16
2022-12-20T17:58:50.299Z,98422.56
2022-12-20T18:01:52.754Z,98410.53
2022-12-20T18:04:55.008Z,98414.81
2022-12-20T18:07:57.158Z,98411.34
2022-12-20T18:10:59.205Z,98411.31
2022-12-20T18:14:03.848Z,98401.84
2022-12-20T18:17:06.102Z,98388.03
2022-12-20T18:20:10.051Z,98395.72
2022-12-20T18:23:12.362Z,98400.00
2022-12-20T18:26:17.479Z,98388.88
2022-12-20T18:29:19.699Z,98389.75
2022-12-20T18:32:22.050Z,98384.59
2022-12-20T18:35:24.426Z,98370.81
2022-12-20T18:38:26.655Z,98372.50
2022-12-20T18:41:31.033Z,98361.31
2022-12-20T18:44:36.097Z,98350.09
2022-12-20T18:47:38.872Z,98345.75
2022-12-20T18:50:41.108Z,98351.75
2022-12-20T18:53:45.465Z,98343.16
2022-12-20T18:56:49.628Z,98345.75
2022-12-20T18:59:52.011Z,98333.78
2022-12-20T19:02:59.656Z,98336.38
2022-12-20T19:06:05.553Z,98349.34
2022-12-20T19:09:10.525Z,98346.78
2022-12-20T19:12:12.999Z,98343.31
2022-12-20T19:15:15.389Z,98344.13
2022-12-20T19:18:17.879Z,98331.19
2022-12-20T19:24:50.492Z,98328.59
2022-12-20T19:27:52.762Z,98326.03
2022-12-20T19:30:56.344Z,98324.38
2022-12-20T19:34:05.654Z,98313.28
2022-12-20T19:37:08.162Z,98311.53
2022-12-20T19:40:12.099Z,98296.03
2022-12-20T19:43:14.189Z,98300.25
2022-12-20T19:46:16.759Z,98300.28
2022-12-20T19:49:21.363Z,98304.56
2022-12-20T19:52:28.409Z,98297.63
2022-12-20T19:55:31.313Z,98284.69
2022-12-20T19:58:33.879Z,98276.16
2022-12-20T20:01:36.226Z,98284.78
2022-12-20T20:04:38.946Z,98295.13
2022-12-20T20:07:41.499Z,98305.44
2022-12-20T20:10:45.113Z,98295.94
2022-12-20T20:13:48.053Z,98295.06
2022-12-20T20:16:50.902Z,98283.00
2022-12-20T20:19:53.063Z,98285.56
2022-12-20T20:22:55.331Z,98279.50
2022-12-20T20:25:59.077Z,98276.91
2022-12-20T20:29:02.379Z,98267.44
2022-12-20T20:32:05.507Z,98268.31
2022-12-20T20:35:09.237Z,98266.59
2022-12-20T20:38:12.416Z,98266.63
2022-12-20T20:41:15.095Z,98256.28
2022-12-20T20:44:17.212Z,98241.66
2022-12-20T20:47:20.810Z,98254.53
2022-12-20T20:50:22.965Z,98251.06
2022-12-20T20:53:29.508Z,98247.53
2022-12-20T20:56:36.500Z,98258.81
2022-12-20T20:59:38.562Z,98245.88
2022-12-20T21:02:40.882Z,98251.91
2022-12-20T21:09:07.152Z,98252.84
2022-12-20T21:12:09.467Z,98257.16
2022-12-20T21:15:22.311Z,98239.97
2022-12-20T21:18:24.925Z,98252.03
2022-12-20T21:21:27.407Z,98258.88
2022-12-20T21:24:29.705Z,98251.09
2022-12-20T21:27:31.910Z,98241.59
2022-12-20T21:30:34.964Z,98226.00
2022-12-20T21:33:37.741Z,98228.66
2022-12-20T21:36:39.753Z,98232.91
2022-12-20T21:39:41.845Z,98233.00
2022-12-20T21:42:43.925Z,98220.94
2022-12-20T21:45:50.546Z,98211.47
2022-12-20T21:48:52.705Z,98220.13
2022-12-20T21:51:56.576Z,98227.06
2022-12-20T21:54:58.565Z,98218.53
2022-12-20T21:58:00.617Z,98212.56
2022-12-20T22:01:08.490Z,98216.81
2022-12-20T22:04:12.180Z,98194.44
2022-12-20T22:07:14.314Z,98199.53
2022-12-20T22:10:16.419Z,98196.91
2022-12-20T22:13:18.488Z,98217.59
2022-12-20T22:16:21.595Z,98209.03
2022-12-20T22:19:23.743Z,98203.06
2022-12-20T22:22:26.210Z,98199.59
2022-12-20T22:25:28.471Z,98186.72
2022-12-20T22:28:30.654Z,98192.72
2022-12-20T22:31:33.760Z,98189.31
2022-12-20T22:34:35.814Z,98186.69
2022-12-20T22:37:37.889Z,98177.25
2022-12-20T22:40:39.901Z,98178.13
2022-12-20T22:43:44.699Z,98174.66
2022-12-20T22:50:06.407Z,98165.06
2022-12-20T22:53:08.375Z,98180.53
2022-12-20T22:56:11.237Z,98175.38
2022-12-20T22:59:13.268Z,98164.19
2022-12-20T23:02:15.425Z,98156.50
2022-12-20T23:05:17.517Z,98148.78
2022-12-20T23:08:19.919Z,98138.38
2022-12-20T23:11:44.612Z,98130.56
2022-12-20T23:15:05.191Z,98123.66
2022-12-20T23:18:07.348Z,98125.41
2022-12-20T23:21:27.995Z,98121.97
2022-12-20T23:24:30.116Z,98119.34
2022-12-20T23:27:32.190Z,98124.47
2022-12-20T23:30:34.242Z,98118.47
2022-12-20T23:33:36.774Z,98118.44
2022-12-20T23:36:38.822Z,98105.50
2022-12-20T23:39:40.814Z,98102.03
2022-12-20T23:42:43.095Z,98096.03
2022-12-20T23:45:45.335Z,98094.31
2022-12-20T23:48:47.602Z,98076.28
2022-12-20T23:51:49.870Z,98061.69
2022-12-20T23:54:51.817Z,98068.59
2022-12-20T23:57:53.844Z,98049.66
